sensor_id;sensor_type;location;lat;lon;timestamp;P1;durP1;ratioP1;P2;durP2;ratioP2
11305;SDS011;5708;50.660;6.778;2023-02-28T00:00:08;7.07;;;3.22;;
11305;SDS011;5708;50.660;6.778;2023-02-28T00:02:42;9.02;;;3.72;;
11305;SDS011;5708;50.660;6.778;2023-02-28T00:05:09;8.70;;;3.80;;
11305;SDS011;5708;50.660;6.778;2023-02-28T00:07:36;7.30;;;3.42;;
11305;SDS011;5708;50.660;6.778;2023-02-28T00:10:02;6.28;;;3.03;;
11305;SDS011;5708;50.660;6.778;2023-02-28T00:12:28;7.85;;;3.30;;
11305;SDS011;5708;50.660;6.778;2023-02-28T00:14:54;8.55;;;3.65;;
11305;SDS011;5708;50.660;6.778;2023-02-28T00:17:19;9.95;;;3.65;;
11305;SDS011;5708;50.660;6.778;2023-02-28T00:19:49;9.75;;;3.30;;
11305;SDS011;5708;50.660;6.778;2023-02-28T00:22:16;8.88;;;3.90;;
11305;SDS011;5708;50.660;6.778;2023-02-28T00:24:46;6.43;;;3.20;;
11305;SDS011;5708;50.660;6.778;2023-02-28T00:27:12;10.85;;;3.70;;
11305;SDS011;5708;50.660;6.778;2023-02-28T00:29:38;9.95;;;3.38;;
11305;SDS011;5708;50.660;6.778;2023-02-28T00:32:04;7.85;;;3.30;;
11305;SDS011;5708;50.660;6.778;2023-02-28T00:34:30;7.40;;;3.25;;
11305;SDS011;5708;50.660;6.778;2023-02-28T00:36:56;10.57;;;3.58;;
11305;SDS011;5708;50.660;6.778;2023-02-28T00:39:21;8.50;;;3.30;;
11305;SDS011;5708;50.660;6.778;2023-02-28T00:41:47;8.73;;;4.00;;
11305;SDS011;5708;50.660;6.778;2023-02-28T00:44:12;8.77;;;3.55;;
11305;SDS011;5708;50.660;6.778;2023-02-28T00:46:38;8.73;;;3.50;;
11305;SDS011;5708;50.660;6.778;2023-02-28T00:49:03;7.25;;;3.58;;
11305;SDS011;5708;50.660;6.778;2023-02-28T00:51:28;8.05;;;3.38;;
11305;SDS011;5708;50.660;6.778;2023-02-28T00:53:54;7.82;;;3.67;;
11305;SDS011;5708;50.660;6.778;2023-02-28T00:56:19;8.85;;;3.25;;
11305;SDS011;5708;50.660;6.778;2023-02-28T00:58:45;11.27;;;4.03;;
11305;SDS011;5708;50.660;6.778;2023-02-28T01:01:10;6.95;;;3.70;;
11305;SDS011;5708;50.660;6.778;2023-02-28T01:03:35;8.45;;;3.50;;
11305;SDS011;5708;50.660;6.778;2023-02-28T01:06:01;7.88;;;3.67;;
11305;SDS011;5708;50.660;6.778;2023-02-28T01:08:26;8.48;;;3.50;;
11305;SDS011;5708;50.660;6.778;2023-02-28T01:10:52;6.93;;;3.47;;
11305;SDS011;5708;50.660;6.778;2023-02-28T01:13:18;11.20;;;3.78;;
11305;SDS011;5708;50.660;6.778;2023-02-28T01:15:46;5.65;;;2.95;;
11305;SDS011;5708;50.660;6.778;2023-02-28T01:18:18;12.18;;;3.67;;
11305;SDS011;5708;50.660;6.778;2023-02-28T01:20:43;9.20;;;3.53;;
11305;SDS011;5708;50.660;6.778;2023-02-28T01:23:09;10.82;;;4.00;;
11305;SDS011;5708;50.660;6.778;2023-02-28T01:25:35;7.05;;;3.60;;
11305;SDS011;5708;50.660;6.778;2023-02-28T01:28:01;7.88;;;3.95;;
11305;SDS011;5708;50.660;6.778;2023-02-28T01:30:26;8.80;;;3.95;;
11305;SDS011;5708;50.660;6.778;2023-02-28T01:32:52;9.77;;;3.72;;
11305;SDS011;5708;50.660;6.778;2023-02-28T01:35:18;9.85;;;3.50;;
11305;SDS011;5708;50.660;6.778;2023-02-28T01:37:44;7.07;;;3.38;;
11305;SDS011;5708;50.660;6.778;2023-02-28T01:40:09;10.02;;;3.80;;
11305;SDS011;5708;50.660;6.778;2023-02-28T01:42:35;6.63;;;3.45;;
11305;SDS011;5708;50.660;6.778;2023-02-28T01:47:50;6.38;;;3.17;;
11305;SDS011;5708;50.660;6.778;2023-02-28T01:50:20;7.43;;;3.13;;
11305;SDS011;5708;50.660;6.778;2023-02-28T01:52:47;7.25;;;3.40;;
11305;SDS011;5708;50.660;6.778;2023-02-28T01:55:13;7.47;;;3.10;;
11305;SDS011;5708;50.660;6.778;2023-02-28T01:57:41;7.50;;;3.05;;
11305;SDS011;5708;50.660;6.778;2023-02-28T02:00:15;14.35;;;3.60;;
11305;SDS011;5708;50.660;6.778;2023-02-28T02:02:43;9.50;;;3.63;;
11305;SDS011;5708;50.660;6.778;2023-02-28T02:05:14;9.73;;;3.88;;
11305;SDS011;5708;50.660;6.778;2023-02-28T02:07:45;9.05;;;3.47;;
11305;SDS011;5708;50.660;6.778;2023-02-28T02:10:17;10.88;;;3.75;;
11305;SDS011;5708;50.660;6.778;2023-02-28T02:42:20;8.05;;;3.53;;
11305;SDS011;5708;50.660;6.778;2023-02-28T02:44:50;7.35;;;3.35;;
11305;SDS011;5708;50.660;6.778;2023-02-28T02:47:21;9.63;;;4.30;;
11305;SDS011;5708;50.660;6.778;2023-02-28T02:49:50;7.20;;;3.83;;
11305;SDS011;5708;50.660;6.778;2023-02-28T02:52:18;8.10;;;3.40;;
11305;SDS011;5708;50.660;6.778;2023-02-28T02:54:47;7.70;;;3.60;;
11305;SDS011;5708;50.660;6.778;2023-02-28T02:57:15;8.60;;;3.88;;
11305;SDS011;5708;50.660;6.778;2023-02-28T02:59:45;7.85;;;3.85;;
11305;SDS011;5708;50.660;6.778;2023-02-28T03:02:11;10.27;;;4.22;;
11305;SDS011;5708;50.660;6.778;2023-02-28T03:04:48;9.63;;;4.25;;
11305;SDS011;5708;50.660;6.778;2023-02-28T03:07:17;11.45;;;4.50;;
11305;SDS011;5708;50.660;6.778;2023-02-28T03:09:50;14.10;;;4.53;;
11305;SDS011;5708;50.660;6.778;2023-02-28T03:12:19;9.85;;;4.40;;
11305;SDS011;5708;50.660;6.778;2023-02-28T03:14:51;9.75;;;4.47;;
11305;SDS011;5708;50.660;6.778;2023-02-28T03:25:39;7.80;;;4.05;;
11305;SDS011;5708;50.660;6.778;2023-02-28T03:34:16;9.88;;;4.45;;
11305;SDS011;5708;50.660;6.778;2023-02-28T03:36:46;10.85;;;3.92;;
11305;SDS011;5708;50.660;6.778;2023-02-28T03:39:24;9.20;;;4.45;;
11305;SDS011;5708;50.660;6.778;2023-02-28T03:42:01;11.48;;;4.18;;
11305;SDS011;5708;50.660;6.778;2023-02-28T03:44:35;11.23;;;4.70;;
11305;SDS011;5708;50.660;6.778;2023-02-28T03:47:04;11.75;;;4.15;;
11305;SDS011;5708;50.660;6.778;2023-02-28T03:49:43;7.95;;;3.88;;
11305;SDS011;5708;50.660;6.778;2023-02-28T03:52:12;9.90;;;4.40;;
11305;SDS011;5708;50.660;6.778;2023-02-28T03:54:43;12.30;;;4.35;;
11305;SDS011;5708;50.660;6.778;2023-02-28T04:00:04;10.05;;;4.47;;
11305;SDS011;5708;50.660;6.778;2023-02-28T04:02:32;10.50;;;4.47;;
11305;SDS011;5708;50.660;6.778;2023-02-28T04:04:57;7.55;;;3.95;;
11305;SDS011;5708;50.660;6.778;2023-02-28T04:07:24;9.63;;;4.20;;
11305;SDS011;5708;50.660;6.778;2023-02-28T04:09:50;9.73;;;4.32;;
11305;SDS011;5708;50.660;6.778;2023-02-28T04:12:15;12.80;;;4.18;;
11305;SDS011;5708;50.660;6.778;2023-02-28T04:14:40;8.00;;;4.05;;
11305;SDS011;5708;50.660;6.778;2023-02-28T04:17:06;8.45;;;4.30;;
11305;SDS011;5708;50.660;6.778;2023-02-28T04:19:31;12.43;;;4.75;;
11305;SDS011;5708;50.660;6.778;2023-02-28T04:21:56;7.78;;;3.97;;
11305;SDS011;5708;50.660;6.778;2023-02-28T04:24:23;10.93;;;4.30;;
11305;SDS011;5708;50.660;6.778;2023-02-28T04:26:51;10.05;;;4.68;;
11305;SDS011;5708;50.660;6.778;2023-02-28T04:29:22;9.68;;;4.55;;
11305;SDS011;5708;50.660;6.778;2023-02-28T04:31:52;9.35;;;4.15;;
11305;SDS011;5708;50.660;6.778;2023-02-28T04:34:18;9.38;;;4.35;;
11305;SDS011;5708;50.660;6.778;2023-02-28T04:36:44;8.55;;;4.28;;
11305;SDS011;5708;50.660;6.778;2023-02-28T04:39:11;9.68;;;3.72;;
11305;SDS011;5708;50.660;6.778;2023-02-28T04:41:36;8.80;;;4.30;;
11305;SDS011;5708;50.660;6.778;2023-02-28T04:44:02;9.40;;;4.55;;
11305;SDS011;5708;50.660;6.778;2023-02-28T04:46:27;13.45;;;4.97;;
11305;SDS011;5708;50.660;6.778;2023-02-28T04:48:52;9.65;;;4.85;;
11305;SDS011;5708;50.660;6.778;2023-02-28T04:51:19;8.93;;;4.10;;
11305;SDS011;5708;50.660;6.778;2023-02-28T04:53:45;10.05;;;4.30;;
11305;SDS011;5708;50.660;6.778;2023-02-28T04:56:12;9.93;;;4.95;;
11305;SDS011;5708;50.660;6.778;2023-02-28T04:58:38;8.55;;;4.50;;
11305;SDS011;5708;50.660;6.778;2023-02-28T05:01:05;8.18;;;4.35;;
11305;SDS011;5708;50.660;6.778;2023-02-28T05:03:39;9.15;;;4.80;;
11305;SDS011;5708;50.660;6.778;2023-02-28T05:06:08;14.73;;;4.68;;
11305;SDS011;5708;50.660;6.778;2023-02-28T05:08:34;9.75;;;4.50;;
11305;SDS011;5708;50.660;6.778;2023-02-28T05:11:00;12.23;;;5.10;;
11305;SDS011;5708;50.660;6.778;2023-02-28T05:13:26;10.25;;;4.55;;
11305;SDS011;5708;50.660;6.778;2023-02-28T05:15:52;9.88;;;4.35;;
11305;SDS011;5708;50.660;6.778;2023-02-28T05:18:18;10.63;;;5.00;;
11305;SDS011;5708;50.660;6.778;2023-02-28T05:20:43;11.25;;;5.30;;
11305;SDS011;5708;50.660;6.778;2023-02-28T05:23:11;15.25;;;5.45;;
11305;SDS011;5708;50.660;6.778;2023-02-28T05:25:37;11.43;;;5.93;;
11305;SDS011;5708;50.660;6.778;2023-02-28T05:28:03;9.68;;;4.90;;
11305;SDS011;5708;50.660;6.778;2023-02-28T05:30:29;18.92;;;7.88;;
11305;SDS011;5708;50.660;6.778;2023-02-28T05:32:54;19.20;;;8.55;;
11305;SDS011;5708;50.660;6.778;2023-02-28T05:35:20;18.23;;;8.65;;
11305;SDS011;5708;50.660;6.778;2023-02-28T05:37:45;15.25;;;6.43;;
11305;SDS011;5708;50.660;6.778;2023-02-28T05:40:11;14.45;;;6.72;;
11305;SDS011;5708;50.660;6.778;2023-02-28T05:42:37;13.70;;;6.57;;
11305;SDS011;5708;50.660;6.778;2023-02-28T05:45:03;11.15;;;6.18;;
11305;SDS011;5708;50.660;6.778;2023-02-28T05:47:30;13.90;;;6.28;;
11305;SDS011;5708;50.660;6.778;2023-02-28T05:49:56;12.20;;;6.20;;
11305;SDS011;5708;50.660;6.778;2023-02-28T05:52:21;11.50;;;5.63;;
11305;SDS011;5708;50.660;6.778;2023-02-28T05:54:47;10.80;;;5.20;;
11305;SDS011;5708;50.660;6.778;2023-02-28T05:57:12;11.57;;;5.25;;
11305;SDS011;5708;50.660;6.778;2023-02-28T05:59:38;13.32;;;6.10;;
11305;SDS011;5708;50.660;6.778;2023-02-28T06:02:05;17.08;;;5.70;;
11305;SDS011;5708;50.660;6.778;2023-02-28T06:04:31;10.38;;;5.15;;
11305;SDS011;5708;50.660;6.778;2023-02-28T06:06:56;11.65;;;5.53;;
11305;SDS011;5708;50.660;6.778;2023-02-28T06:09:22;12.57;;;5.35;;
11305;SDS011;5708;50.660;6.778;2023-02-28T06:11:48;11.93;;;5.78;;
11305;SDS011;5708;50.660;6.778;2023-02-28T06:14:17;12.52;;;5.80;;
11305;SDS011;5708;50.660;6.778;2023-02-28T06:16:43;12.30;;;5.55;;
11305;SDS011;5708;50.660;6.778;2023-02-28T06:19:09;21.25;;;7.30;;
11305;SDS011;5708;50.660;6.778;2023-02-28T06:21:35;17.45;;;6.15;;
11305;SDS011;5708;50.660;6.778;2023-02-28T06:24:01;13.25;;;5.78;;
11305;SDS011;5708;50.660;6.778;2023-02-28T06:26:27;12.55;;;5.80;;
11305;SDS011;5708;50.660;6.778;2023-02-28T06:28:52;17.55;;;7.80;;
11305;SDS011;5708;50.660;6.778;2023-02-28T06:31:18;13.88;;;6.43;;
11305;SDS011;5708;50.660;6.778;2023-02-28T06:33:44;11.75;;;5.38;;
11305;SDS011;5708;50.660;6.778;2023-02-28T06:36:11;13.63;;;5.97;;
11305;SDS011;5708;50.660;6.778;2023-02-28T06:38:37;10.68;;;5.82;;
11305;SDS011;5708;50.660;6.778;2023-02-28T06:41:03;13.38;;;5.50;;
11305;SDS011;5708;50.660;6.778;2023-02-28T06:43:30;11.10;;;4.72;;
11305;SDS011;5708;50.660;6.778;2023-02-28T06:45:58;13.80;;;5.93;;
11305;SDS011;5708;50.660;6.778;2023-02-28T06:48:25;10.55;;;5.47;;
11305;SDS011;5708;50.660;6.778;2023-02-28T06:50:51;11.55;;;5.75;;
11305;SDS011;5708;50.660;6.778;2023-02-28T06:53:17;14.25;;;5.35;;
11305;SDS011;5708;50.660;6.778;2023-02-28T06:55:42;10.40;;;5.40;;
11305;SDS011;5708;50.660;6.778;2023-02-28T06:58:07;13.18;;;5.22;;
11305;SDS011;5708;50.660;6.778;2023-02-28T07:00:40;11.90;;;5.88;;
11305;SDS011;5708;50.660;6.778;2023-02-28T07:03:07;11.88;;;5.15;;
11305;SDS011;5708;50.660;6.778;2023-02-28T07:05:34;10.98;;;5.28;;
11305;SDS011;5708;50.660;6.778;2023-02-28T07:08:00;15.15;;;5.40;;
11305;SDS011;5708;50.660;6.778;2023-02-28T07:10:25;11.52;;;5.57;;
11305;SDS011;5708;50.660;6.778;2023-02-28T07:12:51;16.65;;;6.13;;
11305;SDS011;5708;50.660;6.778;2023-02-28T07:15:16;12.10;;;5.68;;
11305;SDS011;5708;50.660;6.778;2023-02-28T07:17:42;15.40;;;5.72;;
11305;SDS011;5708;50.660;6.778;2023-02-28T07:20:07;13.32;;;5.35;;
11305;SDS011;5708;50.660;6.778;2023-02-28T07:22:33;13.75;;;5.97;;
11305;SDS011;5708;50.660;6.778;2023-02-28T07:24:58;15.18;;;6.20;;
11305;SDS011;5708;50.660;6.778;2023-02-28T07:27:24;11.02;;;5.90;;
11305;SDS011;5708;50.660;6.778;2023-02-28T07:29:50;13.65;;;6.60;;
11305;SDS011;5708;50.660;6.778;2023-02-28T07:32:16;17.95;;;8.80;;
11305;SDS011;5708;50.660;6.778;2023-02-28T07:34:41;18.58;;;6.20;;
11305;SDS011;5708;50.660;6.778;2023-02-28T07:37:07;14.30;;;5.90;;
11305;SDS011;5708;50.660;6.778;2023-02-28T07:39:32;14.27;;;6.00;;
11305;SDS011;5708;50.660;6.778;2023-02-28T07:41:58;12.20;;;5.55;;
11305;SDS011;5708;50.660;6.778;2023-02-28T07:44:24;11.23;;;5.50;;
11305;SDS011;5708;50.660;6.778;2023-02-28T07:46:50;11.20;;;5.30;;
11305;SDS011;5708;50.660;6.778;2023-02-28T07:49:25;12.52;;;5.60;;
11305;SDS011;5708;50.660;6.778;2023-02-28T07:51:50;15.27;;;6.47;;
11305;SDS011;5708;50.660;6.778;2023-02-28T07:54:16;10.98;;;5.05;;
11305;SDS011;5708;50.660;6.778;2023-02-28T07:56:41;10.23;;;5.32;;
11305;SDS011;5708;50.660;6.778;2023-02-28T07:59:07;10.40;;;4.88;;
11305;SDS011;5708;50.660;6.778;2023-02-28T08:01:32;9.65;;;5.38;;
11305;SDS011;5708;50.660;6.778;2023-02-28T08:03:57;10.27;;;4.72;;
11305;SDS011;5708;50.660;6.778;2023-02-28T08:06:23;12.40;;;4.63;;
11305;SDS011;5708;50.660;6.778;2023-02-28T08:08:50;11.10;;;4.32;;
11305;SDS011;5708;50.660;6.778;2023-02-28T08:11:16;8.52;;;4.82;;
11305;SDS011;5708;50.660;6.778;2023-02-28T08:13:42;9.45;;;4.72;;
11305;SDS011;5708;50.660;6.778;2023-02-28T08:16:09;9.52;;;4.68;;
11305;SDS011;5708;50.660;6.778;2023-02-28T08:18:35;9.90;;;4.55;;
11305;SDS011;5708;50.660;6.778;2023-02-28T08:21:05;8.10;;;4.47;;
11305;SDS011;5708;50.660;6.778;2023-02-28T08:23:34;10.45;;;4.45;;
11305;SDS011;5708;50.660;6.778;2023-02-28T08:26:00;9.07;;;4.13;;
11305;SDS011;5708;50.660;6.778;2023-02-28T08:28:25;6.68;;;3.65;;
11305;SDS011;5708;50.660;6.778;2023-02-28T08:30:50;6.10;;;3.88;;
11305;SDS011;5708;50.660;6.778;2023-02-28T08:33:16;8.15;;;3.55;;
11305;SDS011;5708;50.660;6.778;2023-02-28T08:35:41;6.53;;;3.65;;
11305;SDS011;5708;50.660;6.778;2023-02-28T08:38:07;6.30;;;3.60;;
11305;SDS011;5708;50.660;6.778;2023-02-28T08:40:32;7.43;;;3.63;;
11305;SDS011;5708;50.660;6.778;2023-02-28T08:42:57;7.57;;;3.83;;
11305;SDS011;5708;50.660;6.778;2023-02-28T08:45:24;16.55;;;5.72;;
11305;SDS011;5708;50.660;6.778;2023-02-28T08:47:50;24.08;;;9.40;;
11305;SDS011;5708;50.660;6.778;2023-02-28T08:50:17;17.85;;;8.27;;
11305;SDS011;5708;50.660;6.778;2023-02-28T08:52:43;9.90;;;4.28;;
11305;SDS011;5708;50.660;6.778;2023-02-28T08:55:09;9.55;;;4.00;;
11305;SDS011;5708;50.660;6.778;2023-02-28T08:57:35;7.55;;;3.67;;
11305;SDS011;5708;50.660;6.778;2023-02-28T09:00:00;7.68;;;3.33;;
11305;SDS011;5708;50.660;6.778;2023-02-28T09:02:29;7.40;;;3.40;;
11305;SDS011;5708;50.660;6.778;2023-02-28T09:04:57;7.32;;;3.60;;
11305;SDS011;5708;50.660;6.778;2023-02-28T09:07:23;6.15;;;3.22;;
11305;SDS011;5708;50.660;6.778;2023-02-28T09:09:48;6.03;;;3.55;;
11305;SDS011;5708;50.660;6.778;2023-02-28T09:12:24;6.90;;;3.10;;
11305;SDS011;5708;50.660;6.778;2023-02-28T09:14:50;7.47;;;3.08;;
11305;SDS011;5708;50.660;6.778;2023-02-28T09:17:16;7.60;;;3.38;;
11305;SDS011;5708;50.660;6.778;2023-02-28T09:19:41;7.03;;;3.42;;
11305;SDS011;5708;50.660;6.778;2023-02-28T09:22:07;6.72;;;3.22;;
11305;SDS011;5708;50.660;6.778;2023-02-28T09:24:33;5.80;;;2.90;;
11305;SDS011;5708;50.660;6.778;2023-02-28T09:26:58;7.68;;;2.85;;
11305;SDS011;5708;50.660;6.778;2023-02-28T09:29:24;5.88;;;2.88;;
11305;SDS011;5708;50.660;6.778;2023-02-28T09:31:49;6.50;;;2.85;;
11305;SDS011;5708;50.660;6.778;2023-02-28T09:34:15;5.30;;;2.55;;
11305;SDS011;5708;50.660;6.778;2023-02-28T09:36:42;5.85;;;2.70;;
11305;SDS011;5708;50.660;6.778;2023-02-28T09:39:07;5.75;;;2.65;;
11305;SDS011;5708;50.660;6.778;2023-02-28T09:41:38;7.13;;;2.10;;
11305;SDS011;5708;50.660;6.778;2023-02-28T09:44:12;6.72;;;2.72;;
11305;SDS011;5708;50.660;6.778;2023-02-28T09:46:44;5.38;;;2.38;;
11305;SDS011;5708;50.660;6.778;2023-02-28T09:49:16;5.65;;;2.28;;
11305;SDS011;5708;50.660;6.778;2023-02-28T09:54:13;4.82;;;2.25;;
11305;SDS011;5708;50.660;6.778;2023-02-28T09:57:13;5.50;;;2.28;;
11305;SDS011;5708;50.660;6.778;2023-02-28T10:04:51;4.90;;;2.40;;
11305;SDS011;5708;50.660;6.778;2023-02-28T10:10:03;4.93;;;2.10;;
11305;SDS011;5708;50.660;6.778;2023-02-28T10:12:33;5.53;;;2.60;;
11305;SDS011;5708;50.660;6.778;2023-02-28T10:15:02;4.38;;;2.58;;
11305;SDS011;5708;50.660;6.778;2023-02-28T10:17:32;9.95;;;5.20;;
11305;SDS011;5708;50.660;6.778;2023-02-28T10:20:12;3.90;;;2.10;;
11305;SDS011;5708;50.660;6.778;2023-02-28T10:25:45;4.90;;;2.08;;
11305;SDS011;5708;50.660;6.778;2023-02-28T10:28:16;4.18;;;2.05;;
11305;SDS011;5708;50.660;6.778;2023-02-28T10:30:47;4.10;;;2.20;;
11305;SDS011;5708;50.660;6.778;2023-02-28T10:33:18;5.45;;;2.38;;
11305;SDS011;5708;50.660;6.778;2023-02-28T10:35:46;5.20;;;2.58;;
11305;SDS011;5708;50.660;6.778;2023-02-28T10:38:17;4.07;;;2.20;;
11305;SDS011;5708;50.660;6.778;2023-02-28T10:40:44;6.18;;;2.30;;
11305;SDS011;5708;50.660;6.778;2023-02-28T10:45:38;6.60;;;2.45;;
11305;SDS011;5708;50.660;6.778;2023-02-28T10:50:55;6.57;;;2.33;;
11305;SDS011;5708;50.660;6.778;2023-02-28T10:56:05;6.15;;;3.38;;
11305;SDS011;5708;50.660;6.778;2023-02-28T10:58:42;5.90;;;2.20;;
11305;SDS011;5708;50.660;6.778;2023-02-28T11:03:51;5.72;;;2.60;;
11305;SDS011;5708;50.660;6.778;2023-02-28T11:06:20;5.13;;;2.53;;
11305;SDS011;5708;50.660;6.778;2023-02-28T11:08:55;6.50;;;3.00;;
11305;SDS011;5708;50.660;6.778;2023-02-28T11:11:22;5.60;;;2.70;;
11305;SDS011;5708;50.660;6.778;2023-02-28T11:13:50;6.60;;;2.63;;
11305;SDS011;5708;50.660;6.778;2023-02-28T11:16:17;5.05;;;2.45;;
11305;SDS011;5708;50.660;6.778;2023-02-28T11:18:49;4.70;;;2.30;;
11305;SDS011;5708;50.660;6.778;2023-02-28T11:21:37;5.35;;;2.83;;
11305;SDS011;5708;50.660;6.778;2023-02-28T11:26:52;10.25;;;2.70;;
11305;SDS011;5708;50.660;6.778;2023-02-28T11:34:59;4.35;;;2.50;;
11305;SDS011;5708;50.660;6.778;2023-02-28T11:37:47;4.75;;;2.53;;
11305;SDS011;5708;50.660;6.778;2023-02-28T11:40:17;3.65;;;2.00;;
11305;SDS011;5708;50.660;6.778;2023-02-28T11:48:20;7.63;;;2.67;;
11305;SDS011;5708;50.660;6.778;2023-02-28T12:12:23;3.80;;;2.33;;
11305;SDS011;5708;50.660;6.778;2023-02-28T12:29:07;4.55;;;2.08;;
11305;SDS011;5708;50.660;6.778;2023-02-28T12:31:39;5.00;;;2.40;;
11305;SDS011;5708;50.660;6.778;2023-02-28T12:34:16;5.97;;;2.50;;
11305;SDS011;5708;50.660;6.778;2023-02-28T12:36:48;5.28;;;2.75;;
11305;SDS011;5708;50.660;6.778;2023-02-28T12:39:49;6.28;;;2.63;;
11305;SDS011;5708;50.660;6.778;2023-02-28T12:42:12;5.20;;;2.15;;
11305;SDS011;5708;50.660;6.778;2023-02-28T12:44:49;7.47;;;2.50;;
11305;SDS011;5708;50.660;6.778;2023-02-28T12:47:17;4.18;;;2.10;;
11305;SDS011;5708;50.660;6.778;2023-02-28T12:52:28;6.47;;;2.50;;
11305;SDS011;5708;50.660;6.778;2023-02-28T12:55:20;6.10;;;2.40;;
11305;SDS011;5708;50.660;6.778;2023-02-28T12:58:08;4.20;;;2.42;;
11305;SDS011;5708;50.660;6.778;2023-02-28T13:09:15;4.40;;;2.60;;
11305;SDS011;5708;50.660;6.778;2023-02-28T13:19:39;4.80;;;2.53;;
11305;SDS011;5708;50.660;6.778;2023-02-28T13:22:15;6.13;;;2.80;;
11305;SDS011;5708;50.660;6.778;2023-02-28T13:24:47;5.55;;;2.28;;
11305;SDS011;5708;50.660;6.778;2023-02-28T13:29:40;5.03;;;2.47;;
11305;SDS011;5708;50.660;6.778;2023-02-28T13:34:40;5.35;;;2.38;;
11305;SDS011;5708;50.660;6.778;2023-02-28T13:40:07;5.60;;;2.63;;
11305;SDS011;5708;50.660;6.778;2023-02-28T13:42:53;4.32;;;2.30;;
11305;SDS011;5708;50.660;6.778;2023-02-28T13:45:23;5.53;;;2.30;;
11305;SDS011;5708;50.660;6.778;2023-02-28T13:47:54;6.45;;;2.53;;
11305;SDS011;5708;50.660;6.778;2023-02-28T13:55:59;4.65;;;2.35;;
11305;SDS011;5708;50.660;6.778;2023-02-28T14:06:33;5.32;;;2.58;;
11305;SDS011;5708;50.660;6.778;2023-02-28T14:09:46;4.18;;;2.40;;
11305;SDS011;5708;50.660;6.778;2023-02-28T14:11:55;4.68;;;2.60;;
11305;SDS011;5708;50.660;6.778;2023-02-28T14:17:22;5.18;;;2.40;;
11305;SDS011;5708;50.660;6.778;2023-02-28T14:19:46;5.97;;;2.72;;
11305;SDS011;5708;50.660;6.778;2023-02-28T14:22:39;5.15;;;2.70;;
11305;SDS011;5708;50.660;6.778;2023-02-28T14:27:45;5.40;;;2.67;;
11305;SDS011;5708;50.660;6.778;2023-02-28T14:41:31;6.35;;;2.60;;
11305;SDS011;5708;50.660;6.778;2023-02-28T14:44:02;6.10;;;2.65;;
11305;SDS011;5708;50.660;6.778;2023-02-28T14:46:38;5.82;;;2.90;;
11305;SDS011;5708;50.660;6.778;2023-02-28T14:49:05;4.88;;;2.85;;
11305;SDS011;5708;50.660;6.778;2023-02-28T14:51:32;5.82;;;3.08;;
11305;SDS011;5708;50.660;6.778;2023-02-28T14:53:59;6.97;;;2.92;;
11305;SDS011;5708;50.660;6.778;2023-02-28T14:56:44;7.30;;;3.10;;
11305;SDS011;5708;50.660;6.778;2023-02-28T14:59:24;5.10;;;2.75;;
11305;SDS011;5708;50.660;6.778;2023-02-28T15:04:52;5.03;;;2.67;;
11305;SDS011;5708;50.660;6.778;2023-02-28T15:07:19;5.57;;;2.80;;
11305;SDS011;5708;50.660;6.778;2023-02-28T15:09:44;5.15;;;2.53;;
11305;SDS011;5708;50.660;6.778;2023-02-28T15:12:13;5.22;;;2.65;;
11305;SDS011;5708;50.660;6.778;2023-02-28T15:14:39;5.93;;;2.97;;
11305;SDS011;5708;50.660;6.778;2023-02-28T15:17:08;5.00;;;2.88;;
11305;SDS011;5708;50.660;6.778;2023-02-28T15:19:37;5.05;;;3.05;;
11305;SDS011;5708;50.660;6.778;2023-02-28T15:22:13;8.43;;;2.72;;
11305;SDS011;5708;50.660;6.778;2023-02-28T15:24:46;6.10;;;3.25;;
11305;SDS011;5708;50.660;6.778;2023-02-28T15:27:24;6.15;;;3.00;;
11305;SDS011;5708;50.660;6.778;2023-02-28T15:29:53;9.15;;;3.10;;
11305;SDS011;5708;50.660;6.778;2023-02-28T15:34:50;6.88;;;3.42;;
11305;SDS011;5708;50.660;6.778;2023-02-28T15:43:03;6.85;;;3.30;;
11305;SDS011;5708;50.660;6.778;2023-02-28T15:51:01;6.82;;;3.20;;
11305;SDS011;5708;50.660;6.778;2023-02-28T15:53:50;8.02;;;3.55;;
11305;SDS011;5708;50.660;6.778;2023-02-28T15:56:43;6.78;;;3.88;;
11305;SDS011;5708;50.660;6.778;2023-02-28T15:59:05;7.40;;;3.72;;
11305;SDS011;5708;50.660;6.778;2023-02-28T16:01:35;7.53;;;3.40;;
11305;SDS011;5708;50.660;6.778;2023-02-28T16:04:22;7.90;;;3.47;;
11305;SDS011;5708;50.660;6.778;2023-02-28T16:09:23;5.70;;;3.03;;
11305;SDS011;5708;50.660;6.778;2023-02-28T16:11:49;9.13;;;3.53;;
11305;SDS011;5708;50.660;6.778;2023-02-28T16:14:17;5.95;;;3.60;;
11305;SDS011;5708;50.660;6.778;2023-02-28T16:16:45;6.90;;;4.10;;
11305;SDS011;5708;50.660;6.778;2023-02-28T16:19:13;6.90;;;3.85;;
11305;SDS011;5708;50.660;6.778;2023-02-28T16:21:38;7.88;;;4.32;;
11305;SDS011;5708;50.660;6.778;2023-02-28T16:24:04;6.25;;;3.85;;
11305;SDS011;5708;50.660;6.778;2023-02-28T16:26:29;11.95;;;4.50;;
11305;SDS011;5708;50.660;6.778;2023-02-28T16:28:55;9.60;;;4.00;;
11305;SDS011;5708;50.660;6.778;2023-02-28T16:31:20;7.00;;;3.88;;
11305;SDS011;5708;50.660;6.778;2023-02-28T16:33:46;8.35;;;4.47;;
11305;SDS011;5708;50.660;6.778;2023-02-28T16:36:20;9.27;;;3.92;;
11305;SDS011;5708;50.660;6.778;2023-02-28T16:38:47;9.30;;;3.50;;
11305;SDS011;5708;50.660;6.778;2023-02-28T16:41:13;7.60;;;3.80;;
11305;SDS011;5708;50.660;6.778;2023-02-28T16:43:44;6.93;;;3.75;;
11305;SDS011;5708;50.660;6.778;2023-02-28T16:46:15;6.80;;;3.70;;
11305;SDS011;5708;50.660;6.778;2023-02-28T16:48:42;9.38;;;4.00;;
11305;SDS011;5708;50.660;6.778;2023-02-28T16:51:11;8.50;;;4.32;;
11305;SDS011;5708;50.660;6.778;2023-02-28T16:53:37;7.85;;;4.05;;
11305;SDS011;5708;50.660;6.778;2023-02-28T16:56:02;7.88;;;4.20;;
11305;SDS011;5708;50.660;6.778;2023-02-28T16:58:29;8.23;;;4.53;;
11305;SDS011;5708;50.660;6.778;2023-02-28T17:00:54;9.95;;;4.70;;
11305;SDS011;5708;50.660;6.778;2023-02-28T17:03:24;8.65;;;4.60;;
11305;SDS011;5708;50.660;6.778;2023-02-28T17:05:51;8.27;;;4.55;;
11305;SDS011;5708;50.660;6.778;2023-02-28T17:08:16;10.10;;;4.97;;
11305;SDS011;5708;50.660;6.778;2023-02-28T17:10:41;7.72;;;4.45;;
11305;SDS011;5708;50.660;6.778;2023-02-28T17:13:07;8.98;;;4.47;;
11305;SDS011;5708;50.660;6.778;2023-02-28T17:15:33;10.38;;;6.15;;
11305;SDS011;5708;50.660;6.778;2023-02-28T17:17:58;11.43;;;5.95;;
11305;SDS011;5708;50.660;6.778;2023-02-28T17:20:24;9.27;;;4.88;;
11305;SDS011;5708;50.660;6.778;2023-02-28T17:22:51;11.38;;;5.15;;
11305;SDS011;5708;50.660;6.778;2023-02-28T17:25:20;8.38;;;4.40;;
11305;SDS011;5708;50.660;6.778;2023-02-28T17:27:46;10.13;;;5.20;;
11305;SDS011;5708;50.660;6.778;2023-02-28T17:32:41;11.32;;;6.53;;
11305;SDS011;5708;50.660;6.778;2023-02-28T17:35:07;16.27;;;7.90;;
11305;SDS011;5708;50.660;6.778;2023-02-28T17:37:32;15.15;;;7.60;;
11305;SDS011;5708;50.660;6.778;2023-02-28T17:39:58;12.18;;;6.80;;
11305;SDS011;5708;50.660;6.778;2023-02-28T17:42:23;14.73;;;6.60;;
11305;SDS011;5708;50.660;6.778;2023-02-28T17:44:48;15.68;;;7.13;;
11305;SDS011;5708;50.660;6.778;2023-02-28T17:47:14;17.10;;;7.50;;
11305;SDS011;5708;50.660;6.778;2023-02-28T17:49:39;15.85;;;7.88;;
11305;SDS011;5708;50.660;6.778;2023-02-28T17:52:04;14.77;;;6.57;;
11305;SDS011;5708;50.660;6.778;2023-02-28T17:54:30;15.77;;;7.15;;
11305;SDS011;5708;50.660;6.778;2023-02-28T17:56:56;12.05;;;6.25;;
11305;SDS011;5708;50.660;6.778;2023-02-28T17:59:21;11.85;;;6.18;;
11305;SDS011;5708;50.660;6.778;2023-02-28T18:01:46;13.85;;;6.80;;
11305;SDS011;5708;50.660;6.778;2023-02-28T18:04:12;13.02;;;6.60;;
11305;SDS011;5708;50.660;6.778;2023-02-28T18:06:38;12.80;;;6.75;;
11305;SDS011;5708;50.660;6.778;2023-02-28T18:09:11;11.63;;;6.22;;
11305;SDS011;5708;50.660;6.778;2023-02-28T18:11:37;14.73;;;7.03;;
11305;SDS011;5708;50.660;6.778;2023-02-28T18:14:14;13.35;;;6.88;;
11305;SDS011;5708;50.660;6.778;2023-02-28T18:16:40;13.35;;;6.57;;
11305;SDS011;5708;50.660;6.778;2023-02-28T18:19:05;12.82;;;6.43;;
11305;SDS011;5708;50.660;6.778;2023-02-28T18:21:31;12.30;;;7.18;;
11305;SDS011;5708;50.660;6.778;2023-02-28T18:23:56;13.10;;;7.20;;